TimePDT,TemperatureF,Dew PointF,Humidity,Sea Level PressureIn,VisibilityMPH,Wind Direction,Wind SpeedMPH,Gust SpeedMPH,PrecipitationIn,Events,Conditions,WindDirDegrees,DateUTC
12:56 AM,59.9,10.0,14,29.86,10.0,South,6.9,-,N/A,,Clear,180,2013-03-18 07:56:00
1:56 AM,57.9,12.0,16,29.88,10.0,South,4.6,-,N/A,,Clear,190,2013-03-18 08:56:00
2:56 AM,57.9,13.1,17,29.89,10.0,SSE,3.5,-,N/A,,Clear,150,2013-03-18 09:56:00
3:56 AM,56.8,10.0,16,29.88,10.0,SSW,3.5,-,N/A,,Clear,210,2013-03-18 10:56:00
4:56 AM,54.9,13.1,19,29.90,10.0,SSE,6.9,-,N/A,,Clear,160,2013-03-18 11:56:00
5:56 AM,55.9,11.1,17,29.92,10.0,East,3.5,-,N/A,,Clear,90,2013-03-18 12:56:00
6:56 AM,48.9,10.0,21,29.96,10.0,SW,5.8,-,N/A,,Clear,220,2013-03-18 13:56:00
7:56 AM,54.9,16.2,22,29.99,10.0,SSE,5.8,-,N/A,,Clear,160,2013-03-18 14:56:00
8:56 AM,63.9,11.1,13,30.01,10.0,NE,8.1,-,N/A,,Clear,40,2013-03-18 15:56:00
9:56 AM,66.9,10.0,11,30.02,10.0,NE,12.7,-,N/A,,Clear,50,2013-03-18 16:56:00
10:56 AM,70.0,9.1,9,30.03,10.0,NE,10.4,-,N/A,,Clear,40,2013-03-18 17:56:00
11:56 AM,70.9,7.2,8,30.01,10.0,ENE,11.5,-,N/A,,Clear,60,2013-03-18 18:56:00
12:56 PM,72.0,7.2,8,30.00,10.0,Variable,3.5,-,N/A,,Clear,0,2013-03-18 19:56:00
1:56 PM,73.9,5.0,7,29.97,10.0,NNE,6.9,-,N/A,,Clear,20,2013-03-18 20:56:00
2:56 PM,73.9,6.1,7,29.94,10.0,NE,5.8,-,N/A,,Clear,40,2013-03-18 21:56:00
3:56 PM,73.9,7.2,8,29.92,10.0,Variable,3.5,-,N/A,,Clear,0,2013-03-18 22:56:00
4:56 PM,73.9,7.2,8,29.91,10.0,WNW,3.5,-,N/A,,Clear,300,2013-03-18 23:56:00
5:56 PM,73.9,9.1,8,29.90,10.0,Variable,3.5,-,N/A,,Clear,0,2013-03-19 00:56:00
6:56 PM,72.0,11.1,10,29.91,10.0,ENE,4.6,-,N/A,,Clear,70,2013-03-19 01:56:00
7:56 PM,68.9,11.1,11,29.91,10.0,North,5.8,-,N/A,,Clear,10,2013-03-19 02:56:00
8:56 PM,64.9,12.0,13,29.91,10.0,SSW,4.6,-,N/A,,Clear,210,2013-03-19 03:56:00
9:56 PM,63.0,16.2,16,29.92,10.0,SSE,6.9,-,N/A,,Clear,160,2013-03-19 04:56:00
10:56 PM,63.9,12.0,13,29.91,10.0,South,10.4,-,N/A,,Clear,190,2013-03-19 05:56:00
11:56 PM,63.0,11.1,13,29.90,10.0,South,9.2,-,N/A,,Clear,180,2013-03-19 06:56:00